createdAt,value
2018-01-06T00:02:18.595Z,3.63
2018-01-06T00:04:49.530Z,5.20
2018-01-06T00:07:20.515Z,5.17
2018-01-06T00:09:51.434Z,3.60
2018-01-06T00:12:22.428Z,4.83
2018-01-06T00:14:53.375Z,3.77
2018-01-06T00:17:24.338Z,3.97
2018-01-06T00:19:55.270Z,3.87
2018-01-06T00:22:26.261Z,3.80
2018-01-06T00:24:57.228Z,4.23
2018-01-06T00:27:28.155Z,4.53
2018-01-06T00:29:59.136Z,5.20
2018-01-06T00:32:30.115Z,4.60
2018-01-06T00:35:01.081Z,6.43
2018-01-06T00:37:32.054Z,5.70
2018-01-06T00:40:03.036Z,5.10
2018-01-06T00:42:33.925Z,7.30
2018-01-06T00:45:04.849Z,6.10
2018-01-06T00:47:35.790Z,5.40
2018-01-06T00:50:06.787Z,6.07
2018-01-06T00:52:37.718Z,5.67
2018-01-06T00:55:08.704Z,5.50
2018-01-06T00:57:39.723Z,5.63
2018-01-06T01:00:10.738Z,5.20
2018-01-06T01:02:41.647Z,4.80
2018-01-06T01:05:12.564Z,4.97
2018-01-06T01:07:43.492Z,5.70
2018-01-06T01:10:14.460Z,6.33
2018-01-06T01:12:45.452Z,5.60
2018-01-06T01:15:16.446Z,4.43
2018-01-06T01:17:47.410Z,4.53
2018-01-06T01:20:18.359Z,4.40
2018-01-06T01:22:49.335Z,4.67
2018-01-06T01:25:20.310Z,4.60
2018-01-06T01:27:51.256Z,4.73
2018-01-06T01:30:22.211Z,4.07
2018-01-06T01:32:53.181Z,5.27
2018-01-06T01:35:24.118Z,4.40
2018-01-06T01:37:55.073Z,3.67
2018-01-06T01:40:26.011Z,4.30
2018-01-06T01:42:56.950Z,3.73
2018-01-06T01:45:27.859Z,3.80
2018-01-06T01:47:58.796Z,3.93
2018-01-06T01:50:29.805Z,4.47
2018-01-06T01:53:00.704Z,4.23
2018-01-06T01:55:31.696Z,4.40
2018-01-06T01:58:02.640Z,4.50
2018-01-06T02:00:33.617Z,4.50
2018-01-06T02:03:04.608Z,4.33
2018-01-06T02:05:35.632Z,4.57
2018-01-06T02:08:06.589Z,4.70
2018-01-06T02:10:37.582Z,4.50
2018-01-06T02:13:08.548Z,5.53
2018-01-06T02:15:40.171Z,5.23
2018-01-06T02:18:11.241Z,5.83
2018-01-06T02:20:42.207Z,6.13
2018-01-06T02:23:13.192Z,5.50
2018-01-06T02:25:44.128Z,5.60
2018-01-06T02:28:15.112Z,5.73
2018-01-06T02:30:46.064Z,5.80
2018-01-06T02:33:17.016Z,6.60
2018-01-06T02:35:47.990Z,6.23
2018-01-06T02:38:18.944Z,6.17
2018-01-06T02:40:49.915Z,6.30
2018-01-06T02:43:20.860Z,7.13
2018-01-06T02:45:51.796Z,6.70
2018-01-06T02:48:22.739Z,7.27
2018-01-06T02:50:53.713Z,7.07
2018-01-06T02:53:24.648Z,7.00
2018-01-06T02:55:55.602Z,6.50
2018-01-06T02:58:26.545Z,6.80
2018-01-06T03:00:57.506Z,6.70
2018-01-06T03:03:35.629Z,7.20
2018-01-06T03:06:06.601Z,6.93
2018-01-06T03:08:37.580Z,6.93
2018-01-06T03:11:08.499Z,6.80
2018-01-06T03:13:39.474Z,6.73
2018-01-06T03:16:10.434Z,7.57
2018-01-06T03:18:41.428Z,6.60
2018-01-06T03:21:12.379Z,7.23
2018-01-06T03:23:43.341Z,7.53
2018-01-06T03:26:14.291Z,7.77
2018-01-06T03:28:45.222Z,8.07
2018-01-06T03:31:16.206Z,7.70
2018-01-06T03:33:47.135Z,7.40
2018-01-06T03:36:18.091Z,5.83
2018-01-06T03:38:49.068Z,6.93
2018-01-06T03:41:20.038Z,7.50
2018-01-06T03:43:51.040Z,6.20
2018-01-06T03:46:21.959Z,6.73
2018-01-06T03:48:52.897Z,5.47
2018-01-06T03:51:23.830Z,6.13
2018-01-06T03:53:54.936Z,6.67
2018-01-06T03:56:25.926Z,5.80
2018-01-06T03:58:56.946Z,5.83
2018-01-06T04:01:27.987Z,7.90
2018-01-06T04:03:58.944Z,7.47
2018-01-06T04:06:29.868Z,7.27
2018-01-06T04:09:00.815Z,7.53
2018-01-06T04:11:31.811Z,7.57
2018-01-06T04:14:02.729Z,7.47
2018-01-06T04:16:33.708Z,6.50
2018-01-06T04:19:04.664Z,6.23
2018-01-06T04:21:35.652Z,6.47
2018-01-06T04:24:06.607Z,6.33
2018-01-06T04:26:37.614Z,6.53
2018-01-06T04:29:08.568Z,6.20
2018-01-06T04:31:39.517Z,6.63
2018-01-06T04:34:10.508Z,6.53
2018-01-06T04:36:41.436Z,6.13
2018-01-06T04:39:12.412Z,6.43
2018-01-06T04:41:43.325Z,7.00
2018-01-06T04:44:14.284Z,6.30
2018-01-06T04:46:45.223Z,6.60
2018-01-06T04:49:16.212Z,7.40
2018-01-06T04:51:54.204Z,6.93
2018-01-06T04:54:25.193Z,5.73
2018-01-06T04:56:56.184Z,8.13
2018-01-06T04:59:27.161Z,8.13
2018-01-06T05:01:58.146Z,8.77
2018-01-06T05:04:29.082Z,8.67
2018-01-06T05:07:00.021Z,8.83
2018-01-06T05:09:30.946Z,8.33
2018-01-06T05:12:01.894Z,8.20
2018-01-06T05:14:32.820Z,8.20
2018-01-06T05:17:03.749Z,8.23
2018-01-06T05:19:34.700Z,9.13
2018-01-06T05:22:05.633Z,8.50
2018-01-06T05:24:36.582Z,9.33
2018-01-06T05:27:07.512Z,8.17
2018-01-06T05:29:38.483Z,9.40
2018-01-06T05:32:09.416Z,8.97
2018-01-06T05:34:40.420Z,8.63
2018-01-06T05:37:11.414Z,9.20
2018-01-06T05:39:42.375Z,9.87
2018-01-06T05:42:13.325Z,8.50
2018-01-06T05:44:44.369Z,8.37
2018-01-06T05:47:15.365Z,9.53
2018-01-06T05:49:46.328Z,9.40
2018-01-06T05:52:17.291Z,10.07
2018-01-06T05:54:48.274Z,9.63
2018-01-06T05:57:19.223Z,9.30
2018-01-06T05:59:50.120Z,10.30
2018-01-06T06:02:21.089Z,10.17
2018-01-06T06:04:52.042Z,9.73
2018-01-06T06:07:22.945Z,11.93
2018-01-06T06:09:53.896Z,11.63
2018-01-06T06:12:24.874Z,10.83
2018-01-06T06:14:55.944Z,11.57
2018-01-06T06:17:26.882Z,11.77
2018-01-06T06:19:57.840Z,10.20
2018-01-06T06:22:28.811Z,10.87
2018-01-06T06:24:59.791Z,10.90
2018-01-06T06:27:30.737Z,10.67
2018-01-06T06:30:01.749Z,10.53
2018-01-06T06:32:32.717Z,9.73
2018-01-06T06:35:03.635Z,9.93
2018-01-06T06:37:34.610Z,10.27
2018-01-06T06:40:05.615Z,11.00
2018-01-06T06:42:36.595Z,10.10
2018-01-06T06:45:07.549Z,10.23
2018-01-06T06:47:38.524Z,10.40
2018-01-06T06:50:09.444Z,10.47
2018-01-06T06:52:40.427Z,10.23
2018-01-06T06:55:11.377Z,10.73
2018-01-06T06:57:42.422Z,12.53
2018-01-06T07:00:13.414Z,10.27
2018-01-06T07:02:44.361Z,10.30
2018-01-06T07:05:15.273Z,8.23
2018-01-06T07:07:46.218Z,8.37
2018-01-06T07:10:17.191Z,8.63
2018-01-06T07:12:48.334Z,7.67
2018-01-06T07:15:19.494Z,7.70
2018-01-06T07:17:50.473Z,7.17
2018-01-06T07:20:21.460Z,7.43
2018-01-06T07:22:52.369Z,7.47
2018-01-06T07:25:23.305Z,7.63
2018-01-06T07:27:54.218Z,8.70
2018-01-06T07:30:25.208Z,9.33
2018-01-06T07:32:56.159Z,9.97
2018-01-06T07:35:27.104Z,9.20
2018-01-06T07:37:58.082Z,9.60
2018-01-06T07:40:29.064Z,10.80
2018-01-06T07:43:00.017Z,11.73
2018-01-06T07:45:30.989Z,12.33
2018-01-06T07:48:01.988Z,11.53
2018-01-06T07:50:32.950Z,12.27
2018-01-06T07:53:03.879Z,11.73
2018-01-06T07:55:34.826Z,11.70
2018-01-06T07:58:05.787Z,12.97
2018-01-06T08:00:36.765Z,11.53
2018-01-06T08:03:07.693Z,13.40
2018-01-06T08:05:38.616Z,11.97
2018-01-06T08:08:09.568Z,10.77
2018-01-06T08:10:40.513Z,11.17
2018-01-06T08:13:11.448Z,10.60
2018-01-06T08:15:42.398Z,10.17
2018-01-06T08:18:14.206Z,10.33
2018-01-06T08:20:45.231Z,9.23
2018-01-06T08:23:16.214Z,9.30
2018-01-06T08:25:47.192Z,8.03
2018-01-06T08:28:18.177Z,7.23
2018-01-06T08:30:49.213Z,7.47
2018-01-06T08:33:20.100Z,7.50
2018-01-06T08:35:51.109Z,5.87
2018-01-06T08:38:29.100Z,5.70
2018-01-06T08:41:00.085Z,4.87
2018-01-06T08:43:31.029Z,6.03
2018-01-06T08:46:02.892Z,5.47
2018-01-06T08:48:33.880Z,6.23
2018-01-06T08:51:04.823Z,6.30
2018-01-06T08:53:35.811Z,5.70
2018-01-06T08:56:06.763Z,6.17
2018-01-06T08:58:37.704Z,6.67
2018-01-06T09:01:08.731Z,6.23
2018-01-06T09:03:39.696Z,5.97
2018-01-06T09:06:10.686Z,5.00
2018-01-06T09:08:41.707Z,6.00
2018-01-06T09:11:12.658Z,5.70
2018-01-06T09:13:43.658Z,6.27
2018-01-06T09:16:14.634Z,5.87
2018-01-06T09:18:45.608Z,5.63
2018-01-06T09:21:16.571Z,5.17
2018-01-06T09:23:47.583Z,4.70
2018-01-06T09:26:18.530Z,4.70
2018-01-06T09:28:49.509Z,4.23
2018-01-06T09:31:20.458Z,4.47
2018-01-06T09:33:51.492Z,3.60
2018-01-06T09:36:22.439Z,4.57
2018-01-06T09:38:53.463Z,4.50
2018-01-06T09:41:24.377Z,4.83
2018-01-06T09:43:56.106Z,4.97
2018-01-06T09:46:27.088Z,4.67
2018-01-06T09:48:58.120Z,4.07
2018-01-06T09:51:29.098Z,3.17
2018-01-06T09:54:00.116Z,3.47
2018-01-06T09:56:31.150Z,3.07
2018-01-06T09:59:02.106Z,3.10
2018-01-06T10:01:33.062Z,3.27
2018-01-06T10:04:04.041Z,3.33
2018-01-06T10:06:35.031Z,2.60
2018-01-06T10:09:05.981Z,2.47
2018-01-06T10:11:36.978Z,2.47
2018-01-06T10:14:07.879Z,2.50
2018-01-06T10:16:38.857Z,4.80
2018-01-06T10:19:09.781Z,2.03
2018-01-06T10:21:40.723Z,2.70
2018-01-06T10:24:11.666Z,1.97
2018-01-06T10:26:42.606Z,1.83
2018-01-06T10:29:13.624Z,1.87
2018-01-06T10:31:44.600Z,2.77
2018-01-06T10:34:15.556Z,1.57
2018-01-06T10:36:46.508Z,1.70
2018-01-06T10:39:17.505Z,1.77
2018-01-06T10:41:48.476Z,4.27
2018-01-06T10:44:19.457Z,2.57
2018-01-06T10:46:50.412Z,2.10
2018-01-06T10:49:21.341Z,1.90
2018-01-06T10:51:52.320Z,2.43
2018-01-06T10:54:23.305Z,3.50
2018-01-06T10:56:54.315Z,9.27
2018-01-06T10:59:25.292Z,2.10
2018-01-06T11:02:02.388Z,3.30
2018-01-06T11:04:33.370Z,2.30
2018-01-06T11:07:04.470Z,2.20
2018-01-06T11:09:35.537Z,2.37
2018-01-06T11:12:06.487Z,1.80
2018-01-06T11:14:37.437Z,2.20
2018-01-06T11:17:08.398Z,1.73
2018-01-06T11:19:39.479Z,1.70
2018-01-06T11:22:10.760Z,1.73
2018-01-06T11:24:41.700Z,1.80
2018-01-06T11:27:12.674Z,1.77
2018-01-06T11:29:43.616Z,1.67
2018-01-06T11:32:14.580Z,1.90
2018-01-06T11:34:45.542Z,1.90
2018-01-06T11:37:16.494Z,2.00
2018-01-06T11:39:47.503Z,1.60
2018-01-06T11:42:18.416Z,1.63
2018-01-06T11:44:49.330Z,1.77
2018-01-06T11:47:20.303Z,1.97
2018-01-06T11:49:51.228Z,1.70
2018-01-06T11:52:22.222Z,1.90
2018-01-06T11:54:53.201Z,2.10
2018-01-06T11:57:24.200Z,1.93
2018-01-06T11:59:55.206Z,2.13
2018-01-06T12:02:26.158Z,1.70
2018-01-06T12:04:57.118Z,1.73
2018-01-06T12:07:28.122Z,2.07
2018-01-06T12:09:59.071Z,2.10
2018-01-06T12:12:30.017Z,9.83
2018-01-06T12:15:00.986Z,1.90
2018-01-06T12:17:31.942Z,1.80
2018-01-06T12:20:02.906Z,1.80
2018-01-06T12:22:33.906Z,2.10
2018-01-06T12:25:04.878Z,1.87
2018-01-06T12:27:35.826Z,1.73
2018-01-06T12:30:06.834Z,2.10
2018-01-06T12:32:37.834Z,2.00
2018-01-06T12:35:08.779Z,2.03
2018-01-06T12:37:39.750Z,1.97
2018-01-06T12:40:10.739Z,2.33
2018-01-06T12:42:41.752Z,2.07
2018-01-06T12:45:12.772Z,2.13
2018-01-06T12:47:43.735Z,1.27
2018-01-06T12:50:14.730Z,2.37
2018-01-06T12:52:45.744Z,1.20
2018-01-06T12:55:16.778Z,1.90
2018-01-06T12:57:47.712Z,1.63
2018-01-06T13:00:18.757Z,2.20
2018-01-06T13:02:49.699Z,2.30
2018-01-06T13:05:20.710Z,2.07
2018-01-06T13:07:51.671Z,2.47
2018-01-06T13:10:22.614Z,2.30
2018-01-06T13:12:53.593Z,2.57
2018-01-06T13:15:24.546Z,2.80
2018-01-06T13:17:55.464Z,2.93
2018-01-06T13:20:26.486Z,2.90
2018-01-06T13:22:57.524Z,3.00
2018-01-06T13:25:28.563Z,2.90
2018-01-06T13:27:59.525Z,2.93
2018-01-06T13:30:30.483Z,3.37
2018-01-06T13:33:01.448Z,2.93
2018-01-06T13:35:32.447Z,2.90
2018-01-06T13:38:04.254Z,3.50
2018-01-06T13:40:35.237Z,3.03
2018-01-06T13:43:06.224Z,3.77
2018-01-06T13:45:37.194Z,3.20
2018-01-06T13:48:08.160Z,4.40
2018-01-06T13:50:39.173Z,5.37
2018-01-06T13:53:10.124Z,4.00
2018-01-06T13:55:41.126Z,3.57
2018-01-06T13:58:12.072Z,3.90
2018-01-06T14:00:43.028Z,4.03
2018-01-06T14:03:13.967Z,4.30
2018-01-06T14:05:44.971Z,3.53
2018-01-06T14:08:15.917Z,3.73
2018-01-06T14:10:46.885Z,3.60
2018-01-06T14:13:17.830Z,2.77
2018-01-06T14:15:48.899Z,3.00
2018-01-06T14:18:19.925Z,3.23
2018-01-06T14:20:50.916Z,3.93
2018-01-06T14:23:21.905Z,3.03
2018-01-06T14:25:55.458Z,3.20
2018-01-06T14:28:26.498Z,3.20
2018-01-06T14:30:57.438Z,3.57
2018-01-06T14:33:28.403Z,3.63
2018-01-06T14:35:59.338Z,3.63
2018-01-06T14:38:30.303Z,3.80
2018-01-06T14:41:01.242Z,3.53
2018-01-06T14:43:32.250Z,3.47
2018-01-06T14:46:03.213Z,3.60
2018-01-06T14:48:34.223Z,4.00
2018-01-06T14:51:05.208Z,3.13
2018-01-06T14:53:36.176Z,3.37
2018-01-06T14:56:07.146Z,3.40
2018-01-06T14:58:38.135Z,3.77
2018-01-06T15:01:09.139Z,3.97
2018-01-06T15:03:40.168Z,4.40
2018-01-06T15:06:11.159Z,4.97
2018-01-06T15:08:42.073Z,4.00
2018-01-06T15:11:13.024Z,4.53
2018-01-06T15:13:43.985Z,5.27
2018-01-06T15:16:15.025Z,5.93
2018-01-06T15:18:45.982Z,6.70
2018-01-06T15:21:16.944Z,9.10
2018-01-06T15:23:48.018Z,8.80
2018-01-06T15:26:18.946Z,9.83
2018-01-06T15:28:49.923Z,9.57
2018-01-06T15:31:20.842Z,11.70
2018-01-06T15:33:51.837Z,11.17
2018-01-06T15:36:22.805Z,11.77
2018-01-06T15:38:53.818Z,12.73
2018-01-06T15:41:24.793Z,12.83
2018-01-06T15:43:55.795Z,13.87
2018-01-06T15:46:26.803Z,12.63
2018-01-06T15:48:57.794Z,12.90
2018-01-06T15:51:28.807Z,12.93
2018-01-06T15:53:59.730Z,12.63
2018-01-06T15:56:31.450Z,13.63
2018-01-06T15:59:02.421Z,11.83
2018-01-06T16:01:33.413Z,12.03
2018-01-06T16:04:04.352Z,13.50
2018-01-06T16:06:35.354Z,13.80
2018-01-06T16:09:06.293Z,14.17
2018-01-06T16:11:37.262Z,15.73
2018-01-06T16:14:08.214Z,15.30
2018-01-06T16:16:41.406Z,18.43
2018-01-06T16:19:12.391Z,16.87
2018-01-06T16:21:43.356Z,20.93
2018-01-06T16:24:14.328Z,18.87
2018-01-06T16:26:45.313Z,19.87
2018-01-06T16:29:16.308Z,20.33
2018-01-06T16:31:47.257Z,20.33
2018-01-06T16:34:18.242Z,22.53
2018-01-06T16:36:49.216Z,23.83
2018-01-06T16:39:20.212Z,25.37
2018-01-06T16:41:51.169Z,29.60
2018-01-06T16:44:22.207Z,29.90
2018-01-06T16:46:53.189Z,30.70
2018-01-06T16:49:24.150Z,29.80
2018-01-06T16:51:55.048Z,29.30
2018-01-06T16:54:26.054Z,30.97
2018-01-06T16:56:57.071Z,30.67
2018-01-06T16:59:28.044Z,28.63
2018-01-06T17:01:59.005Z,28.17
2018-01-06T17:04:29.996Z,29.43
2018-01-06T17:07:00.989Z,30.27
2018-01-06T17:09:31.966Z,32.27
2018-01-06T17:12:02.944Z,31.37
2018-01-06T17:14:33.914Z,30.00
2018-01-06T17:17:04.853Z,32.37
2018-01-06T17:19:35.807Z,32.60
2018-01-06T17:22:06.757Z,31.13
2018-01-06T17:24:37.741Z,31.93
2018-01-06T17:27:08.778Z,33.43
2018-01-06T17:29:39.789Z,33.50
2018-01-06T17:32:10.836Z,34.27
2018-01-06T17:34:41.762Z,33.57
2018-01-06T17:37:12.774Z,38.07
2018-01-06T17:39:43.917Z,34.23
2018-01-06T17:42:14.903Z,39.53
2018-01-06T17:44:45.828Z,38.30
2018-01-06T17:47:16.831Z,40.33
2018-01-06T17:49:47.786Z,38.83
2018-01-06T17:52:18.754Z,38.33
2018-01-06T17:54:49.735Z,40.83
2018-01-06T17:57:20.757Z,34.80
2018-01-06T17:59:51.726Z,36.03
2018-01-06T18:02:22.781Z,35.10
2018-01-06T18:04:53.736Z,33.97
2018-01-06T18:07:24.726Z,33.30
2018-01-06T18:09:55.650Z,35.00
2018-01-06T18:12:26.666Z,31.77
2018-01-06T18:14:57.635Z,31.13
2018-01-06T18:17:28.617Z,32.57
2018-01-06T18:19:59.737Z,31.03
2018-01-06T18:22:30.694Z,29.27
2018-01-06T18:25:01.822Z,29.40
2018-01-06T18:27:32.878Z,31.23
2018-01-06T18:30:03.852Z,31.17
2018-01-06T18:32:34.746Z,35.40
2018-01-06T18:35:05.775Z,32.97
2018-01-06T18:37:36.755Z,31.80
2018-01-06T18:40:07.714Z,30.43
2018-01-06T18:42:38.636Z,32.87
2018-01-06T18:45:09.630Z,31.73
2018-01-06T18:47:40.565Z,34.87
2018-01-06T18:50:11.524Z,31.77
2018-01-06T18:52:42.502Z,34.37
2018-01-06T18:55:13.469Z,32.63
2018-01-06T18:57:44.467Z,37.23
2018-01-06T19:00:15.426Z,34.20
2018-01-06T19:02:46.406Z,33.80
2018-01-06T19:05:24.482Z,38.53
2018-01-06T19:07:55.459Z,40.73
2018-01-06T19:10:26.414Z,36.23
2018-01-06T19:12:57.412Z,33.23
2018-01-06T19:15:28.426Z,43.63
2018-01-06T19:18:00.314Z,38.00
2018-01-06T19:20:31.331Z,37.63
2018-01-06T19:23:02.300Z,33.77
2018-01-06T19:25:33.303Z,44.50
2018-01-06T19:28:04.282Z,32.10
2018-01-06T19:30:35.297Z,55.33
2018-01-06T19:33:06.219Z,36.83
2018-01-06T19:35:37.201Z,40.90
2018-01-06T19:38:08.157Z,39.83
2018-01-06T19:40:39.175Z,58.80
2018-01-06T19:43:10.135Z,35.83
2018-01-06T19:45:41.095Z,38.03
2018-01-06T19:48:12.160Z,32.10
2018-01-06T19:50:43.152Z,38.50
2018-01-06T19:53:14.144Z,30.90
2018-01-06T19:55:45.102Z,40.10
2018-01-06T19:58:16.118Z,40.00
2018-01-06T20:00:47.124Z,63.27
2018-01-06T20:03:18.134Z,30.87
2018-01-06T20:05:49.125Z,34.60
2018-01-06T20:08:20.121Z,36.00
2018-01-06T20:10:51.111Z,28.23
2018-01-06T20:13:22.079Z,28.17
2018-01-06T20:15:53.020Z,27.17
2018-01-06T20:18:24.002Z,27.87
2018-01-06T20:20:54.965Z,32.63
2018-01-06T20:23:25.943Z,29.33
2018-01-06T20:25:56.910Z,29.00
2018-01-06T20:28:27.929Z,29.40
2018-01-06T20:30:58.988Z,35.27
2018-01-06T20:33:30.020Z,31.13
2018-01-06T20:36:01.053Z,31.00
2018-01-06T20:38:31.979Z,28.20
2018-01-06T20:41:02.982Z,27.87
2018-01-06T20:43:33.960Z,30.73
2018-01-06T20:46:04.969Z,27.17
2018-01-06T20:48:35.895Z,30.30
2018-01-06T20:51:06.881Z,30.80
2018-01-06T20:53:37.906Z,31.27
2018-01-06T20:56:08.842Z,30.47
2018-01-06T20:58:39.797Z,29.53
2018-01-06T21:01:10.855Z,27.73
2018-01-06T21:03:41.771Z,28.60
2018-01-06T21:06:12.876Z,32.23
2018-01-06T21:08:43.832Z,28.73
2018-01-06T21:11:14.793Z,32.73
2018-01-06T21:13:45.794Z,30.90
2018-01-06T21:16:16.735Z,29.07
2018-01-06T21:18:47.779Z,29.57
2018-01-06T21:21:18.732Z,25.13
2018-01-06T21:23:49.688Z,32.83
2018-01-06T21:26:20.659Z,31.47
2018-01-06T21:28:51.659Z,24.40
2018-01-06T21:31:22.694Z,26.63
2018-01-06T21:33:53.713Z,39.00
2018-01-06T21:36:24.650Z,27.10
2018-01-06T21:38:55.618Z,25.97
2018-01-06T21:41:26.626Z,34.47
2018-01-06T21:43:57.637Z,45.23
2018-01-06T21:46:28.687Z,24.50
2018-01-06T21:48:59.597Z,29.70
2018-01-06T21:51:30.614Z,28.00
2018-01-06T21:54:01.610Z,29.17
2018-01-06T21:56:32.560Z,30.87
2018-01-06T21:59:03.698Z,29.83
2018-01-06T22:01:34.655Z,25.90
2018-01-06T22:04:05.619Z,26.47
2018-01-06T22:06:36.581Z,37.37
2018-01-06T22:09:07.706Z,28.20
2018-01-06T22:11:38.722Z,27.47
2018-01-06T22:14:09.734Z,24.20
2018-01-06T22:16:40.754Z,21.27
2018-01-06T22:19:11.713Z,19.83
2018-01-06T22:21:46.298Z,19.17
2018-01-06T22:24:18.173Z,18.67
2018-01-06T22:26:49.119Z,20.27
2018-01-06T22:29:20.071Z,20.17
2018-01-06T22:31:50.991Z,20.30
2018-01-06T22:34:21.968Z,22.83
2018-01-06T22:36:52.955Z,24.73
2018-01-06T22:39:23.886Z,21.63
2018-01-06T22:41:54.825Z,21.30
2018-01-06T22:44:25.803Z,22.37
2018-01-06T22:46:56.787Z,22.70
2018-01-06T22:49:27.752Z,21.53
2018-01-06T22:51:58.703Z,30.33
2018-01-06T22:54:29.612Z,23.83
2018-01-06T22:57:00.569Z,28.13
2018-01-06T22:59:31.503Z,26.53
2018-01-06T23:02:02.440Z,26.87
2018-01-06T23:04:33.474Z,24.03
2018-01-06T23:07:04.435Z,27.07
2018-01-06T23:09:35.374Z,26.30
2018-01-06T23:12:06.451Z,26.00
2018-01-06T23:14:37.436Z,19.60
2018-01-06T23:17:08.390Z,25.57
2018-01-06T23:19:39.371Z,28.03
2018-01-06T23:22:17.387Z,17.47
2018-01-06T23:24:48.326Z,19.80
2018-01-06T23:27:19.308Z,18.07
2018-01-06T23:29:50.265Z,18.60
2018-01-06T23:32:21.222Z,16.00
2018-01-06T23:34:52.190Z,19.57
2018-01-06T23:37:23.104Z,18.13
2018-01-06T23:39:54.051Z,16.67
2018-01-06T23:42:25.016Z,15.03
2018-01-06T23:44:56.007Z,16.07
2018-01-06T23:47:26.932Z,17.03
2018-01-06T23:49:57.938Z,14.83
2018-01-06T23:52:28.887Z,13.27
2018-01-06T23:54:59.874Z,15.30
2018-01-06T23:57:30.827Z,14.50
